BBQ99F KMEM-KMEM
Flight info
| Callsign | BBQ99F |
|---|---|
| Flight time | 0h 7m |
| Altitude | VFR/013 |
| Route | PATTERNS |
| Aircraft | BT36/L-DOV/C |
Departure
| Time | 2026-05-08 02:40 |
|---|---|
| Airport | Memphis International Airport (KMEM) |
Arrival
| Time | 2026-05-08 02:47 |
|---|---|
| Airport | Memphis International Airport (KMEM) |
| Time | Latitude | Longitude | Altitude | Speed | Heading |
|---|---|---|---|---|---|
| 2026-05-08 02:30 | 35.05478 | -89.98145 | 294 ft | 0 kts | 91° |
| 2026-05-08 02:33 | 35.05544 | -89.98184 | 294 ft | 42 kts | 291° |
| 2026-05-08 02:33 | 35.05569 | -89.98415 | 282 ft | 17 kts | 282° |
| 2026-05-08 02:34 | 35.05571 | -89.98475 | 281 ft | 0 kts | 265° |
| 2026-05-08 02:34 | 35.05559 | -89.98498 | 280 ft | 10 kts | 213° |
| 2026-05-08 02:34 | 35.05467 | -89.98507 | 280 ft | 15 kts | 185° |
| 2026-05-08 02:34 | 35.05331 | -89.98511 | 283 ft | 23 kts | 180° |
| 2026-05-08 02:35 | 35.05253 | -89.98516 | 277 ft | 25 kts | 177° |
| 2026-05-08 02:35 | 35.05085 | -89.98513 | 292 ft | 30 kts | 184° |
| 2026-05-08 02:35 | 35.04882 | -89.98562 | 292 ft | 21 kts | 209° |
| 2026-05-08 02:35 | 35.04822 | -89.98599 | 292 ft | 9 kts | 196° |
| 2026-05-08 02:36 | 35.04745 | -89.98608 | 291 ft | 17 kts | 179° |
| 2026-05-08 02:36 | 35.04623 | -89.98648 | 292 ft | 18 kts | 217° |
| 2026-05-08 02:36 | 35.04717 | -89.98735 | 291 ft | 66 kts | 359° |
| 2026-05-08 02:36 | 35.05392 | -89.98745 | 466 ft | 114 kts | 358° |
| 2026-05-08 02:37 | 35.06195 | -89.98930 | 794 ft | 122 kts | 311° |
| 2026-05-08 02:37 | 35.05898 | -89.99748 | 843 ft | 125 kts | 219° |
| 2026-05-08 02:37 | 35.05102 | -90.00138 | 697 ft | 126 kts | 193° |
| 2026-05-08 02:37 | 35.04337 | -90.00219 | 532 ft | 98 kts | 183° |
| 2026-05-08 02:38 | 35.03694 | -90.00253 | 370 ft | 92 kts | 182° |
| 2026-05-08 02:38 | 35.03086 | -90.00261 | 277 ft | 76 kts | 181° |
| 2026-05-08 02:38 | 35.02535 | -90.00264 | 397 ft | 94 kts | 178° |
| 2026-05-08 02:38 | 35.01748 | -90.00180 | 642 ft | 131 kts | 171° |
| 2026-05-08 02:39 | 35.00941 | -89.99835 | 788 ft | 108 kts | 134° |
| 2026-05-08 02:39 | 35.00922 | -89.99098 | 770 ft | 77 kts | 46° |
| 2026-05-08 02:39 | 35.01460 | -89.98774 | 696 ft | 95 kts | 7° |
| 2026-05-08 02:39 | 35.02222 | -89.98664 | 850 ft | 129 kts | 1° |
| 2026-05-08 02:40 | 35.03216 | -89.98688 | 965 ft | 154 kts | 356° |
| 2026-05-08 02:40 | 35.04211 | -89.98717 | 987 ft | 135 kts | 358° |
| 2026-05-08 02:40 | 35.05111 | -89.98761 | 1103 ft | 126 kts | 357° |
| 2026-05-08 02:40 | 35.05930 | -89.99044 | 1126 ft | 124 kts | 323° |
| 2026-05-08 02:41 | 35.06236 | -89.99962 | 1190 ft | 127 kts | 270° |
| 2026-05-08 02:41 | 35.05915 | -90.00991 | 1213 ft | 133 kts | 220° |
| 2026-05-08 02:41 | 35.05027 | -90.01240 | 931 ft | 149 kts | 176° |
| 2026-05-08 02:41 | 35.04086 | -90.01018 | 759 ft | 133 kts | 152° |
| 2026-05-08 02:42 | 35.03245 | -90.00504 | 552 ft | 135 kts | 156° |
| 2026-05-08 02:42 | 35.02369 | -90.00260 | 314 ft | 120 kts | 182° |
| 2026-05-08 02:42 | 35.01635 | -90.00258 | 302 ft | 92 kts | 180° |
| 2026-05-08 02:42 | 35.00969 | -90.00091 | 600 ft | 107 kts | 131° |
| 2026-05-08 02:43 | 35.01025 | -89.99326 | 931 ft | 98 kts | 41° |
| 2026-05-08 02:43 | 35.01668 | -89.98800 | 628 ft | 115 kts | 14° |
| 2026-05-08 02:43 | 35.02363 | -89.98684 | 335 ft | 86 kts | 354° |
| 2026-05-08 02:43 | 35.02849 | -89.98699 | 313 ft | 68 kts | 357° |
| 2026-05-08 02:44 | 35.03406 | -89.98702 | 379 ft | 105 kts | 354° |
| 2026-05-08 02:44 | 35.04334 | -89.98727 | 398 ft | 147 kts | 356° |
| 2026-05-08 02:44 | 35.05352 | -89.98772 | 687 ft | 136 kts | 356° |
| 2026-05-08 02:44 | 35.06090 | -89.99178 | 976 ft | 115 kts | 297° |
| 2026-05-08 02:45 | 35.05805 | -90.00025 | 1013 ft | 121 kts | 204° |
| 2026-05-08 02:45 | 35.04969 | -90.00161 | 803 ft | 120 kts | 182° |
| 2026-05-08 02:45 | 35.04169 | -90.00216 | 606 ft | 110 kts | 182° |
| 2026-05-08 02:45 | 35.03490 | -90.00241 | 362 ft | 89 kts | 180° |
| 2026-05-08 02:46 | 35.02848 | -90.00249 | 435 ft | 93 kts | 179° |
| 2026-05-08 02:46 | 35.02207 | -90.00220 | 501 ft | 92 kts | 176° |
| 2026-05-08 02:46 | 35.01748 | -89.99879 | 555 ft | 85 kts | 106° |
| 2026-05-08 02:46 | 35.01736 | -89.99129 | 489 ft | 92 kts | 73° |
| 2026-05-08 02:47 | 35.02181 | -89.98707 | 421 ft | 78 kts | 0° |
| 2026-05-08 02:47 | 35.02695 | -89.98693 | 312 ft | 62 kts | 355° |
| 2026-05-08 02:47 | 35.03044 | -89.98703 | 309 ft | 60 kts | 0° |
| 2026-05-08 02:47 | 35.03382 | -89.98711 | 311 ft | 40 kts | 359° |
| 2026-05-08 02:48 | 35.03621 | -89.98706 | 308 ft | 22 kts | 25° |
| 2026-05-08 02:48 | 35.03660 | -89.98617 | 307 ft | 0 kts | 86° |
| 2026-05-08 02:50 | 35.03664 | -89.98579 | 306 ft | 5 kts | 149° |
| 2026-05-08 02:51 | 35.03635 | -89.98584 | 307 ft | 5 kts | 175° |
| 2026-05-08 02:51 | 35.03601 | -89.98583 | 307 ft | 6 kts | 179° |
| 2026-05-08 02:51 | 35.03559 | -89.98581 | 308 ft | 6 kts | 179° |
| 2026-05-08 02:51 | 35.03512 | -89.98577 | 308 ft | 7 kts | 182° |
| 2026-05-08 02:52 | 35.03424 | -89.98580 | 310 ft | 27 kts | 180° |
| 2026-05-08 02:52 | 35.03242 | -89.98559 | 311 ft | 24 kts | 174° |
| 2026-05-08 02:52 | 35.03089 | -89.98543 | 310 ft | 19 kts | 122° |
| 2026-05-08 02:52 | 35.03075 | -89.98474 | 311 ft | 0 kts | 100° |
| 2026-05-08 02:53 | 35.03075 | -89.98470 | 311 ft | 0 kts | 98° |
| 2026-05-08 02:53 | 35.03074 | -89.98463 | 311 ft | 5 kts | 96° |
| 2026-05-08 02:53 | 35.03073 | -89.98452 | 311 ft | 0 kts | 90° |
| 2026-05-08 02:54 | 35.03073 | -89.98450 | 311 ft | 1 kts | 90° |
| 2026-05-08 02:54 | 35.03073 | -89.98444 | 311 ft | 0 kts | 90° |
| 2026-05-08 02:55 | 35.03073 | -89.98443 | 311 ft | 0 kts | 90° |
| 2026-05-08 02:55 | 35.03073 | -89.98441 | 311 ft | 0 kts | 90° |
| 2026-05-08 02:56 | 35.03073 | -89.98439 | 311 ft | 3 kts | 99° |
| 2026-05-08 02:57 | 35.03056 | -89.98448 | 311 ft | 5 kts | 267° |
| 2026-05-08 02:57 | 35.03098 | -89.98470 | 311 ft | 18 kts | 358° |
| 2026-05-08 02:57 | 35.03214 | -89.98474 | 310 ft | 16 kts | 0° |
| 2026-05-08 02:57 | 35.03323 | -89.98476 | 309 ft | 15 kts | 357° |
| 2026-05-08 02:58 | 35.03425 | -89.98478 | 309 ft | 16 kts | 359° |
| 2026-05-08 02:58 | 35.03547 | -89.98480 | 308 ft | 17 kts | 356° |
| 2026-05-08 02:58 | 35.03668 | -89.98485 | 304 ft | 17 kts | 358° |
| 2026-05-08 02:58 | 35.03770 | -89.98473 | 302 ft | 14 kts | 47° |
| 2026-05-08 02:59 | 35.03788 | -89.98362 | 302 ft | 13 kts | 86° |
| 2026-05-08 02:59 | 35.03793 | -89.98307 | 303 ft | 6 kts | 77° |
| 2026-05-08 02:59 | 35.03794 | -89.98301 | 304 ft | 2 kts | 89° |
| 2026-05-08 02:59 | 35.03791 | -89.98259 | 302 ft | 6 kts | 90° |